Time;durP1;ratioP1;P1;durP2;ratioP2;P2;SDS_P1;SDS_P2;PMS_P1;PMS_P2;Temp;Humidity;BMP_temperature;BMP_pressure;BME280_temperature;BME280_humidity;BME280_pressure;Samples;Min_cycle;Max_cycle;Signal;HPM_P1;HPM_P2
2024/01/16 00:01:58;;;;;;;10.00;1.60;;;2.40;99.90;;;;;;5071128;28;39238;-77
2024/01/16 00:04:26;;;;;;;14.90;1.77;;;2.40;99.90;;;;;;5083131;28;37175;-77
2024/01/16 00:06:52;;;;;;;7.70;1.10;;;2.40;99.90;;;;;;5070801;28;38125;-78
2024/01/16 00:09:18;;;;;;;8.83;1.40;;;2.40;99.90;;;;;;5095766;28;37549;-77
2024/01/16 00:11:45;;;;;;;10.87;1.70;;;2.40;99.90;;;;;;5081119;28;38832;-77
2024/01/16 00:14:11;;;;;;;8.43;1.00;;;2.40;99.90;;;;;;5077512;28;39066;-77
2024/01/16 00:16:47;;;;;;;8.03;1.30;;;2.30;99.90;;;;;;5074638;28;38080;-77
2024/01/16 00:19:13;;;;;;;9.10;1.17;;;2.30;99.90;;;;;;5066257;28;37368;-77
2024/01/16 00:21:47;;;;;;;11.30;1.30;;;2.30;99.90;;;;;;5070268;28;37880;-77
2024/01/16 00:24:14;;;;;;;10.40;1.33;;;2.30;99.90;;;;;;5068491;28;37842;-77
2024/01/16 00:26:40;;;;;;;8.80;1.20;;;2.30;99.90;;;;;;5074036;28;37385;-77
2024/01/16 00:29:06;;;;;;;9.00;1.67;;;2.30;99.90;;;;;;5093112;28;37298;-77
2024/01/16 00:31:33;;;;;;;5.10;1.03;;;2.20;99.90;;;;;;5069222;28;37896;-77
2024/01/16 00:33:59;;;;;;;10.87;1.17;;;2.20;99.90;;;;;;5076779;28;37650;-77
2024/01/16 00:36:25;;;;;;;7.40;1.33;;;2.10;99.90;;;;;;5078807;28;38026;-77
2024/01/16 00:38:51;;;;;;;11.47;1.33;;;2.10;99.90;;;;;;5076965;28;36251;-77
2024/01/16 00:41:17;;;;;;;5.27;1.30;;;2.10;99.90;;;;;;5074308;28;37646;-77
2024/01/16 00:43:44;;;;;;;7.33;1.67;;;2.10;99.90;;;;;;5065922;28;37133;-77
2024/01/16 00:46:10;;;;;;;9.13;1.43;;;2.00;99.90;;;;;;5086607;28;38962;-77
2024/01/16 00:48:36;;;;;;;8.63;1.33;;;2.00;99.90;;;;;;5073269;28;35962;-78
2024/01/16 00:51:02;;;;;;;17.77;1.60;;;2.00;99.90;;;;;;5085007;28;40044;-78
2024/01/16 00:53:29;;;;;;;8.27;1.67;;;2.20;99.90;;;;;;5067403;28;37095;-77
2024/01/16 00:55:55;;;;;;;13.90;1.73;;;2.20;99.90;;;;;;5076975;28;37179;-77
2024/01/16 00:58:24;;;;;;;8.90;1.70;;;2.20;99.90;;;;;;5069560;28;35892;-77
2024/01/16 01:00:50;;;;;;;5.53;1.00;;;2.10;99.90;;;;;;5074512;28;38188;-77
2024/01/16 01:03:16;;;;;;;8.73;1.17;;;2.10;99.90;;;;;;5085038;28;38211;-78
2024/01/16 01:05:43;;;;;;;13.20;2.17;;;2.10;99.90;;;;;;5068458;28;39013;-77
2024/01/16 01:08:09;;;;;;;8.53;1.13;;;2.10;99.90;;;;;;5072933;28;35934;-77
2024/01/16 01:10:35;;;;;;;5.83;1.10;;;2.20;99.90;;;;;;5059814;28;37894;-77
2024/01/16 01:13:01;;;;;;;13.83;2.50;;;2.10;99.90;;;;;;5077948;28;37220;-77
2024/01/16 01:15:27;;;;;;;7.87;2.00;;;2.20;99.90;;;;;;5083369;28;48645;-77
2024/01/16 01:17:54;;;;;;;12.20;1.40;;;2.20;99.90;;;;;;5069780;28;37997;-78
2024/01/16 01:20:20;;;;;;;5.63;0.67;;;2.20;99.90;;;;;;5073778;28;39024;-78
2024/01/16 01:22:47;;;;;;;2.27;0.60;;;2.20;99.90;;;;;;5070687;28;39663;-78
2024/01/16 01:25:13;;;;;;;8.30;1.00;;;2.20;99.90;;;;;;5066259;28;36897;-78
2024/01/16 01:27:39;;;;;;;6.70;0.80;;;2.10;99.90;;;;;;5069584;28;37086;-77
2024/01/16 01:30:11;;;;;;;6.37;0.90;;;2.00;99.90;;;;;;5071038;28;38761;-77
2024/01/16 01:32:38;;;;;;;8.15;0.90;;;2.00;99.90;;;;;;5065987;28;38728;-78
2024/01/16 01:35:05;;;;;;;6.63;0.90;;;2.00;99.90;;;;;;5083906;28;37669;-78
2024/01/16 01:37:32;;;;;;;10.50;2.37;;;2.00;99.90;;;;;;5075901;28;36119;-77
2024/01/16 01:39:58;;;;;;;7.87;1.30;;;2.00;99.90;;;;;;5068091;28;38009;-77
2024/01/16 01:42:24;;;;;;;11.07;1.40;;;2.10;99.90;;;;;;5087916;28;38483;-78
2024/01/16 01:44:50;;;;;;;11.87;1.43;;;2.20;99.90;;;;;;5076266;28;38296;-77
2024/01/16 01:47:16;;;;;;;8.90;1.40;;;2.20;99.90;;;;;;5072739;28;37593;-77
2024/01/16 01:49:42;;;;;;;8.43;1.10;;;2.20;99.90;;;;;;5089612;28;39138;-78
2024/01/16 01:52:09;;;;;;;4.77;0.97;;;2.20;99.90;;;;;;5070623;28;37686;-77
2024/01/16 01:54:37;;;;;;;8.77;1.60;;;2.20;99.90;;;;;;5071349;28;37761;-77
2024/01/16 01:57:04;;;;;;;9.67;1.30;;;2.10;99.90;;;;;;5067429;28;36830;-78
2024/01/16 01:59:31;;;;;;;10.23;1.07;;;2.10;99.90;;;;;;5081268;28;39082;-77
2024/01/16 02:01:58;;;;;;;14.47;1.73;;;2.00;99.90;;;;;;5542589;22;37237;-75
2024/01/16 02:04:26;;;;;;;11.10;1.90;;;2.00;99.90;;;;;;5026470;28;35015;-75
2024/01/16 02:06:53;;;;;;;11.73;1.20;;;1.90;99.90;;;;;;5032541;28;36176;-75
2024/01/16 02:09:20;;;;;;;6.80;1.00;;;1.90;99.90;;;;;;5032834;28;37901;-75
2024/01/16 02:11:46;;;;;;;14.77;1.73;;;1.90;99.90;;;;;;5035919;28;37689;-75
2024/01/16 02:14:12;;;;;;;10.37;1.57;;;1.80;99.90;;;;;;5052264;28;38219;-74
2024/01/16 02:16:42;;;;;;;7.03;1.73;;;1.80;99.90;;;;;;5053425;28;38007;-74
2024/01/16 02:19:08;;;;;;;7.10;1.43;;;1.80;99.90;;;;;;5043864;28;38903;-74
2024/01/16 02:21:49;;;;;;;11.60;1.80;;;1.70;99.90;;;;;;5035235;28;38522;-74
2024/01/16 02:24:16;;;;;;;9.00;1.50;;;1.70;99.90;;;;;;5034457;28;37041;-74
2024/01/16 02:26:43;;;;;;;9.93;1.37;;;1.60;99.90;;;;;;5050531;28;37134;-75
2024/01/16 02:29:09;;;;;;;9.03;1.73;;;1.60;99.90;;;;;;5045054;28;37571;-75
2024/01/16 02:31:35;;;;;;;15.97;1.93;;;1.70;99.90;;;;;;5032912;28;37491;-74
2024/01/16 02:34:03;;;;;;;9.20;1.60;;;1.70;99.90;;;;;;5035453;28;37373;-75
2024/01/16 02:36:30;;;;;;;16.50;2.90;;;1.80;99.90;;;;;;5050152;28;36198;-75
2024/01/16 02:38:56;;;;;;;7.73;1.77;;;1.90;99.90;;;;;;5046023;28;37909;-74
2024/01/16 02:41:23;;;;;;;12.67;1.67;;;1.90;99.90;;;;;;5030305;28;37386;-74
2024/01/16 02:43:49;;;;;;;15.70;5.33;;;2.00;99.90;;;;;;5051979;28;40213;-74
2024/01/16 02:46:15;;;;;;;9.77;1.40;;;2.00;99.90;;;;;;5033047;28;36993;-75
2024/01/16 02:48:45;;;;;;;8.87;1.63;;;2.00;99.90;;;;;;5032762;28;40774;-74
2024/01/16 02:51:11;;;;;;;11.53;1.60;;;2.00;99.90;;;;;;5024470;28;39623;-75
2024/01/16 02:53:37;;;;;;;8.47;1.57;;;2.00;99.90;;;;;;5029691;28;37205;-75
2024/01/16 02:56:04;;;;;;;11.13;2.33;;;1.90;99.90;;;;;;5032692;28;36210;-74
2024/01/16 02:58:33;;;;;;;12.97;1.60;;;2.00;99.90;;;;;;5032093;28;39021;-75
2024/01/16 03:00:59;;;;;;;7.47;1.50;;;1.90;99.90;;;;;;5034947;28;38246;-74
2024/01/16 03:03:27;;;;;;;13.60;1.80;;;1.90;99.90;;;;;;5050960;28;36471;-75
2024/01/16 03:05:53;;;;;;;14.23;1.60;;;1.90;99.90;;;;;;5049400;28;37231;-74
2024/01/16 03:08:19;;;;;;;18.50;1.83;;;1.80;99.90;;;;;;5033027;28;37627;-74
2024/01/16 03:10:46;;;;;;;8.27;2.37;;;1.80;99.90;;;;;;5045458;28;39200;-74
2024/01/16 03:13:13;;;;;;;9.17;1.80;;;1.80;99.90;;;;;;5031808;28;36592;-74
2024/01/16 03:15:40;;;;;;;13.13;1.83;;;1.80;99.90;;;;;;5034068;28;36213;-74
2024/01/16 03:18:07;;;;;;;12.83;1.83;;;1.80;99.90;;;;;;5038844;28;40842;-74
2024/01/16 03:20:33;;;;;;;11.57;2.00;;;1.80;99.90;;;;;;5040990;28;37553;-76
2024/01/16 03:22:59;;;;;;;19.13;1.90;;;1.90;99.90;;;;;;5028607;28;37231;-73
2024/01/16 03:25:25;;;;;;;9.70;1.93;;;1.90;99.90;;;;;;5021753;28;37146;-73
2024/01/16 03:27:51;;;;;;;10.40;2.33;;;2.00;99.90;;;;;;5030121;28;40154;-73
2024/01/16 03:30:17;;;;;;;14.70;2.23;;;2.00;99.90;;;;;;5048508;28;37251;-74
2024/01/16 03:32:44;;;;;;;15.10;2.03;;;1.90;99.90;;;;;;5033815;28;38031;-74
2024/01/16 03:35:10;;;;;;;9.73;1.77;;;1.90;99.90;;;;;;5037651;28;36859;-74
2024/01/16 03:37:38;;;;;;;11.60;2.10;;;1.90;99.90;;;;;;5040929;28;37700;-74
2024/01/16 03:40:05;;;;;;;11.23;1.90;;;1.90;99.90;;;;;;5050138;28;38709;-73
2024/01/16 03:42:31;;;;;;;15.17;2.27;;;1.90;99.90;;;;;;5023033;28;38443;-76
2024/01/16 03:44:57;;;;;;;10.93;1.83;;;1.90;99.90;;;;;;5048657;28;37155;-74
2024/01/16 03:47:23;;;;;;;10.07;1.87;;;1.90;99.90;;;;;;5031534;28;38056;-74
2024/01/16 03:49:49;;;;;;;7.43;2.23;;;1.90;99.90;;;;;;5050368;28;38476;-75
2024/01/16 03:52:15;;;;;;;10.27;1.67;;;1.80;99.90;;;;;;5035723;28;38271;-75
2024/01/16 03:54:42;;;;;;;11.83;2.93;;;1.80;99.90;;;;;;5032996;28;36994;-74
2024/01/16 03:57:08;;;;;;;8.93;1.80;;;1.70;99.90;;;;;;5043099;28;37745;-74
2024/01/16 03:59:37;;;;;;;14.47;2.00;;;1.80;99.90;;;;;;5027768;28;37580;-74
2024/01/16 04:02:03;;;;;;;10.33;2.00;;;1.80;99.90;;;;;;5049935;28;37108;-75
2024/01/16 04:04:30;;;;;;;15.37;2.10;;;1.80;99.90;;;;;;5042527;28;36931;-75
2024/01/16 04:06:56;;;;;;;11.60;1.80;;;1.90;99.90;;;;;;5018677;28;39152;-75
2024/01/16 04:09:22;;;;;;;7.07;1.80;;;1.90;99.90;;;;;;5023068;28;37275;-75
2024/01/16 04:11:50;;;;;;;18.17;2.03;;;2.00;99.90;;;;;;5048450;28;38501;-75
2024/01/16 04:14:16;;;;;;;13.17;2.20;;;1.90;99.90;;;;;;5031752;28;36118;-74
2024/01/16 04:16:42;;;;;;;15.30;2.30;;;1.90;99.90;;;;;;5048280;28;39705;-75
2024/01/16 04:19:09;;;;;;;8.90;2.27;;;1.80;99.90;;;;;;5026961;28;37382;-75
2024/01/16 04:21:36;;;;;;;17.83;2.50;;;1.70;99.90;;;;;;5028585;28;38098;-76
2024/01/16 04:24:03;;;;;;;8.83;2.10;;;1.60;99.90;;;;;;5029829;28;37324;-76
2024/01/16 04:26:29;;;;;;;12.43;1.93;;;1.60;99.90;;;;;;5028576;28;37639;-75
2024/01/16 04:28:55;;;;;;;14.00;1.53;;;1.60;99.90;;;;;;5047921;28;39831;-76
2024/01/16 04:31:22;;;;;;;9.90;2.27;;;1.60;99.90;;;;;;5022060;28;37244;-75
2024/01/16 04:33:48;;;;;;;9.93;1.50;;;1.60;99.90;;;;;;5049614;28;36063;-75
2024/01/16 04:36:14;;;;;;;7.43;1.53;;;1.60;99.90;;;;;;5025114;28;37444;-76
2024/01/16 04:38:40;;;;;;;8.63;1.57;;;1.60;99.90;;;;;;5033815;28;38200;-77
2024/01/16 04:41:06;;;;;;;9.37;1.80;;;1.60;99.90;;;;;;5033308;28;38473;-75
2024/01/16 04:43:32;;;;;;;8.90;1.53;;;1.60;99.90;;;;;;5048158;28;36684;-76
2024/01/16 04:45:58;;;;;;;9.20;1.30;;;1.60;99.90;;;;;;5044843;28;37632;-76
2024/01/16 04:48:24;;;;;;;15.40;2.07;;;1.70;99.90;;;;;;5048123;28;38437;-75
2024/01/16 04:50:50;;;;;;;6.13;1.17;;;1.70;99.90;;;;;;5032063;28;37915;-75
2024/01/16 04:53:17;;;;;;;8.47;1.50;;;1.70;99.90;;;;;;5038459;28;36569;-77
2024/01/16 04:55:43;;;;;;;10.23;1.60;;;1.70;99.90;;;;;;5039286;28;37612;-75
2024/01/16 04:58:10;;;;;;;10.43;1.50;;;1.70;99.90;;;;;;5033643;28;37285;-75
2024/01/16 05:00:36;;;;;;;8.90;1.80;;;1.70;99.90;;;;;;5026597;28;37419;-77
2024/01/16 05:03:05;;;;;;;18.57;2.23;;;1.70;99.90;;;;;;5033059;28;36059;-75
2024/01/16 05:05:31;;;;;;;8.67;1.57;;;1.70;99.90;;;;;;5053335;28;39441;-76
2024/01/16 05:08:00;;;;;;;10.43;2.90;;;1.70;99.90;;;;;;5032609;28;37027;-76
2024/01/16 05:10:26;;;;;;;9.80;1.83;;;1.70;99.90;;;;;;5038107;28;37045;-76
2024/01/16 05:12:52;;;;;;;7.43;1.80;;;1.70;99.90;;;;;;5030850;28;37104;-76
2024/01/16 05:15:31;;;;;;;10.47;2.30;;;1.80;99.90;;;;;;5053048;28;41654;-77
2024/01/16 05:17:57;;;;;;;5.43;1.70;;;1.70;99.90;;;;;;5033419;28;37132;-77
2024/01/16 05:20:23;;;;;;;9.47;1.70;;;1.70;99.90;;;;;;5043090;28;38959;-75
2024/01/16 05:22:49;;;;;;;9.50;1.70;;;1.70;99.90;;;;;;5037225;28;37839;-75
2024/01/16 05:25:17;;;;;;;12.27;1.40;;;1.80;99.90;;;;;;5035539;28;37682;-76
2024/01/16 05:27:44;;;;;;;10.53;1.50;;;1.70;99.90;;;;;;5038965;28;37453;-76
2024/01/16 05:30:10;;;;;;;10.43;1.50;;;1.70;99.90;;;;;;5035316;28;37158;-76
2024/01/16 05:32:37;;;;;;;6.30;1.47;;;1.80;99.90;;;;;;5031117;28;37882;-77
2024/01/16 05:35:03;;;;;;;4.90;1.60;;;1.80;99.90;;;;;;5038803;28;37170;-76
2024/01/16 05:37:29;;;;;;;7.07;1.30;;;1.80;99.90;;;;;;5022615;28;38255;-78
2024/01/16 05:39:55;;;;;;;10.57;1.60;;;1.80;99.90;;;;;;5035597;28;36778;-78
2024/01/16 05:42:21;;;;;;;6.77;1.77;;;1.80;99.90;;;;;;5027241;28;38644;-78
2024/01/16 05:44:48;;;;;;;8.33;1.33;;;1.80;99.90;;;;;;5040947;28;39026;-78
2024/01/16 05:47:14;;;;;;;11.10;1.77;;;1.80;99.90;;;;;;5022010;28;37327;-77
2024/01/16 05:49:41;;;;;;;10.13;1.60;;;1.80;99.90;;;;;;5036061;28;38859;-76
2024/01/16 05:52:07;;;;;;;11.57;1.43;;;1.80;99.90;;;;;;5027895;28;37529;-76
2024/01/16 05:54:34;;;;;;;9.17;1.43;;;1.80;99.90;;;;;;5026431;28;37890;-75
2024/01/16 05:57:00;;;;;;;7.60;1.23;;;1.80;99.90;;;;;;5026569;28;37514;-76
2024/01/16 05:59:26;;;;;;;5.07;1.40;;;1.80;99.90;;;;;;5023622;28;38479;-77
2024/01/16 06:01:52;;;;;;;10.57;1.53;;;1.70;99.90;;;;;;5027892;28;36214;-78
2024/01/16 06:04:19;;;;;;;12.77;1.83;;;1.70;99.90;;;;;;5042666;28;39280;-77
2024/01/16 06:06:47;;;;;;;8.93;1.43;;;1.70;99.90;;;;;;5041856;28;38620;-77
2024/01/16 06:09:16;;;;;;;7.13;1.30;;;1.60;99.90;;;;;;5017952;28;37093;-75
2024/01/16 06:11:43;;;;;;;11.37;1.67;;;1.60;99.90;;;;;;5025738;28;37212;-76
2024/01/16 06:14:09;;;;;;;8.10;1.40;;;1.60;99.90;;;;;;5035407;28;38215;-76
2024/01/16 06:16:36;;;;;;;8.30;1.33;;;1.60;99.90;;;;;;5024602;28;37459;-76
2024/01/16 06:19:02;;;;;;;12.13;1.77;;;1.60;99.90;;;;;;5027671;28;37174;-78
2024/01/16 06:21:28;;;;;;;7.57;1.50;;;1.50;99.90;;;;;;5028301;28;36157;-74
2024/01/16 06:23:54;;;;;;;8.67;1.60;;;1.50;99.90;;;;;;5024945;28;39032;-79
2024/01/16 06:26:21;;;;;;;12.87;2.00;;;1.50;99.90;;;;;;5026403;28;37496;-76
2024/01/16 06:28:47;;;;;;;6.67;1.40;;;1.50;99.90;;;;;;5046116;28;37828;-78
2024/01/16 06:31:14;;;;;;;15.20;1.80;;;1.50;99.90;;;;;;5022578;28;36272;-77
2024/01/16 06:33:40;;;;;;;4.87;1.17;;;1.50;99.90;;;;;;5002159;28;37808;-76
2024/01/16 06:36:06;;;;;;;11.43;1.90;;;1.50;99.90;;;;;;5013307;28;37373;-76
2024/01/16 06:38:32;;;;;;;8.77;1.40;;;1.50;99.90;;;;;;5014440;28;37944;-74
2024/01/16 06:40:59;;;;;;;7.20;1.67;;;1.50;99.90;;;;;;5033314;28;37232;-76
2024/01/16 06:43:25;;;;;;;15.33;1.70;;;1.40;99.90;;;;;;5035563;28;38982;-76
2024/01/16 06:45:51;;;;;;;6.67;1.53;;;1.40;99.90;;;;;;5033419;28;38013;-76
2024/01/16 06:48:17;;;;;;;8.00;1.50;;;1.50;99.90;;;;;;5027248;28;38419;-77
2024/01/16 06:50:44;;;;;;;6.07;1.10;;;1.50;99.90;;;;;;5014186;28;36050;-77
2024/01/16 06:53:10;;;;;;;8.70;1.60;;;1.50;99.90;;;;;;5007804;28;36990;-76
2024/01/16 06:55:36;;;;;;;6.43;1.27;;;1.50;99.90;;;;;;5017978;28;38485;-77
2024/01/16 06:58:03;;;;;;;12.00;1.93;;;1.50;99.90;;;;;;5016088;28;36672;-76
2024/01/16 07:00:29;;;;;;;6.53;1.67;;;1.50;99.90;;;;;;5037636;28;37949;-76
2024/01/16 07:02:55;;;;;;;8.13;1.47;;;1.50;99.90;;;;;;5010030;28;37805;-77
2024/01/16 07:05:22;;;;;;;13.37;1.90;;;1.50;99.90;;;;;;5013569;28;38746;-76
2024/01/16 07:07:48;;;;;;;6.47;1.40;;;1.50;99.90;;;;;;5020838;28;37019;-76
2024/01/16 07:10:18;;;;;;;7.63;1.60;;;1.50;99.90;;;;;;5039891;28;37221;-75
2024/01/16 07:12:45;;;;;;;11.37;1.40;;;1.50;99.90;;;;;;5032054;28;38542;-75
2024/01/16 07:15:11;;;;;;;7.87;1.70;;;1.50;99.90;;;;;;5042194;28;38367;-75
2024/01/16 07:17:38;;;;;;;9.40;1.73;;;1.50;99.90;;;;;;5037044;28;38425;-75
2024/01/16 07:20:04;;;;;;;9.17;1.40;;;1.50;99.90;;;;;;5020378;28;36045;-77
2024/01/16 07:22:31;;;;;;;7.10;1.37;;;1.60;99.90;;;;;;5019632;28;37950;-77
2024/01/16 07:24:57;;;;;;;8.67;2.43;;;1.60;99.90;;;;;;5031181;28;38756;-76
2024/01/16 07:27:23;;;;;;;11.13;2.10;;;1.60;99.90;;;;;;5043010;28;39123;-75
2024/01/16 07:29:49;;;;;;;5.77;1.40;;;1.60;99.90;;;;;;5055808;28;36910;-78
2024/01/16 07:32:16;;;;;;;6.73;1.47;;;1.60;99.90;;;;;;5035972;28;38309;-75
2024/01/16 07:34:42;;;;;;;9.30;1.60;;;1.60;99.90;;;;;;5052370;28;38658;-78
2024/01/16 07:37:08;;;;;;;6.60;1.73;;;1.60;99.90;;;;;;5029787;28;37399;-75
2024/01/16 07:39:34;;;;;;;5.37;1.57;;;1.60;99.90;;;;;;5047675;28;36136;-76
2024/01/16 07:42:00;;;;;;;9.77;1.90;;;1.60;99.90;;;;;;5061228;28;37759;-75
2024/01/16 07:44:26;;;;;;;10.20;2.00;;;1.60;99.90;;;;;;5041997;28;47147;-76
2024/01/16 07:46:53;;;;;;;8.87;1.70;;;1.70;99.90;;;;;;5032515;28;36733;-75
2024/01/16 07:49:19;;;;;;;8.67;1.53;;;1.70;99.90;;;;;;5059289;28;33862;-75
2024/01/16 07:51:45;;;;;;;10.97;1.83;;;1.80;99.90;;;;;;5038001;28;39352;-80
2024/01/16 07:54:13;;;;;;;8.37;1.70;;;1.60;99.90;;;;;;5039540;28;38912;-77
2024/01/16 07:56:39;;;;;;;8.83;1.20;;;1.60;99.90;;;;;;5038894;28;37178;-77
2024/01/16 07:59:05;;;;;;;6.53;1.80;;;1.60;99.90;;;;;;5055780;28;37374;-74
2024/01/16 08:01:32;;;;;;;11.70;1.30;;;1.60;99.90;;;;;;5036431;28;37647;-75
2024/01/16 08:03:58;;;;;;;12.30;2.30;;;1.70;99.90;;;;;;5037763;28;38751;-76
2024/01/16 08:06:25;;;;;;;6.93;1.30;;;1.70;99.90;;;;;;5028139;28;36705;-75
2024/01/16 08:08:51;;;;;;;8.20;1.50;;;1.70;99.90;;;;;;5034139;28;37069;-75
2024/01/16 08:11:18;;;;;;;7.07;1.50;;;1.70;99.90;;;;;;5048620;28;39895;-76
2024/01/16 08:13:45;;;;;;;5.80;1.60;;;1.60;99.90;;;;;;5033465;28;37005;-75
2024/01/16 08:16:11;;;;;;;8.47;1.47;;;1.60;99.90;;;;;;5038969;28;37721;-75
2024/01/16 08:18:37;;;;;;;3.50;1.13;;;1.60;99.90;;;;;;5044602;28;36778;-75
2024/01/16 08:21:03;;;;;;;3.03;1.30;;;1.60;99.90;;;;;;5029746;28;38595;-80
2024/01/16 08:23:30;;;;;;;9.43;2.23;;;1.60;99.90;;;;;;5034812;28;37423;-80
2024/01/16 08:25:56;;;;;;;8.47;1.80;;;1.60;99.90;;;;;;5030505;28;36965;-75
2024/01/16 08:28:24;;;;;;;11.13;2.13;;;1.60;99.90;;;;;;5029720;28;35642;-77
2024/01/16 08:30:50;;;;;;;6.10;2.00;;;1.60;99.90;;;;;;5051252;28;39676;-77
2024/01/16 08:33:16;;;;;;;14.97;2.60;;;1.60;99.90;;;;;;5029443;28;37955;-77
2024/01/16 08:35:42;;;;;;;12.73;2.53;;;1.60;99.90;;;;;;5037863;28;37666;-78
2024/01/16 08:38:08;;;;;;;11.83;2.70;;;1.60;99.90;;;;;;5032312;28;37040;-76
2024/01/16 08:40:34;;;;;;;19.20;3.10;;;1.60;99.90;;;;;;5057579;28;39632;-76
2024/01/16 08:43:00;;;;;;;8.87;2.70;;;1.60;99.90;;;;;;5040521;28;37295;-78
2024/01/16 08:45:27;;;;;;;11.10;2.73;;;1.60;99.90;;;;;;5037220;28;47273;-77
2024/01/16 08:47:53;;;;;;;11.67;2.60;;;1.60;99.90;;;;;;5046906;28;37718;-79
2024/01/16 08:50:19;;;;;;;8.67;2.23;;;1.70;99.90;;;;;;5034929;28;37658;-80
2024/01/16 08:52:45;;;;;;;4.93;2.20;;;1.70;99.90;;;;;;5050769;28;38861;-74
2024/01/16 08:55:12;;;;;;;10.60;2.40;;;1.70;99.90;;;;;;5035081;28;36796;-75
2024/01/16 08:57:38;;;;;;;9.60;2.73;;;1.70;99.90;;;;;;5052715;28;38132;-75
2024/01/16 09:00:05;;;;;;;12.20;2.70;;;1.70;99.90;;;;;;5026875;28;37820;-75
2024/01/16 09:02:31;;;;;;;7.50;2.40;;;1.70;99.90;;;;;;5028980;28;38769;-75
2024/01/16 09:04:58;;;;;;;10.10;2.87;;;1.70;99.90;;;;;;5042386;28;37875;-74
2024/01/16 09:07:25;;;;;;;5.17;2.17;;;1.70;99.90;;;;;;5024639;28;37859;-75
2024/01/16 09:09:51;;;;;;;8.00;2.23;;;1.70;99.90;;;;;;5033341;28;38136;-78
2024/01/16 09:12:17;;;;;;;11.50;4.43;;;1.70;99.90;;;;;;5050735;28;39528;-75
2024/01/16 09:14:43;;;;;;;8.47;2.33;;;1.70;99.90;;;;;;5047110;28;38379;-74
2024/01/16 09:17:09;;;;;;;9.70;2.50;;;1.70;99.90;;;;;;5040570;28;36351;-73
2024/01/16 09:19:36;;;;;;;11.33;2.17;;;1.70;99.90;;;;;;5044264;28;37679;-74
2024/01/16 09:22:03;;;;;;;12.37;1.87;;;1.70;99.90;;;;;;5026505;28;37217;-76
2024/01/16 09:24:30;;;;;;;8.43;2.80;;;1.70;99.90;;;;;;5045657;28;38250;-75
2024/01/16 09:26:58;;;;;;;5.60;2.00;;;1.80;99.90;;;;;;5041544;28;37960;-75
2024/01/16 09:29:24;;;;;;;6.30;1.60;;;1.80;99.90;;;;;;5034244;28;37773;-75
2024/01/16 09:31:51;;;;;;;7.40;2.30;;;1.90;99.90;;;;;;5027298;28;38322;-75
2024/01/16 09:34:20;;;;;;;9.23;1.90;;;1.90;99.90;;;;;;5030270;28;36899;-74
2024/01/16 09:36:46;;;;;;;6.87;2.80;;;1.90;99.90;;;;;;5026108;28;37975;-74
2024/01/16 09:39:13;;;;;;;8.60;1.80;;;2.00;99.90;;;;;;5048787;28;38684;-77
2024/01/16 09:41:39;;;;;;;8.57;2.13;;;1.90;99.90;;;;;;5038689;28;38076;-75
2024/01/16 09:44:07;;;;;;;13.50;2.03;;;1.90;99.90;;;;;;5033944;28;39650;-76
2024/01/16 09:46:35;;;;;;;6.43;1.87;;;1.90;99.90;;;;;;5040859;28;37576;-75
2024/01/16 09:49:02;;;;;;;7.90;1.80;;;1.80;99.90;;;;;;5037760;28;37959;-74
2024/01/16 09:51:29;;;;;;;5.77;1.73;;;1.80;99.90;;;;;;5039558;28;37347;-74
2024/01/16 09:53:55;;;;;;;11.07;1.93;;;1.80;99.90;;;;;;5035163;28;38425;-75
2024/01/16 09:56:25;;;;;;;5.97;1.60;;;1.90;99.90;;;;;;5024211;28;36672;-74
2024/01/16 09:58:58;;;;;;;8.57;1.70;;;1.90;99.90;;;;;;5041258;28;41646;-73
2024/01/16 10:01:26;;;;;;;;;;;1.90;99.90;;;;;;5038433;28;37566;-74
2024/01/16 10:03:52;;;;;;;5.60;1.70;;;2.00;99.90;;;;;;5031830;28;38123;-76
2024/01/16 10:06:20;;;;;;;13.10;2.27;;;2.10;99.90;;;;;;5028055;28;37365;-73
2024/01/16 10:08:46;;;;;;;9.47;2.20;;;2.20;99.90;;;;;;5031057;28;37354;-75
2024/01/16 10:11:12;;;;;;;8.00;2.23;;;2.10;99.90;;;;;;5045819;28;39258;-74
2024/01/16 10:13:39;;;;;;;9.07;2.93;;;2.10;99.90;;;;;;5025646;28;36966;-75
2024/01/16 10:16:05;;;;;;;8.53;1.90;;;2.10;99.90;;;;;;5031645;28;36131;-75
2024/01/16 10:18:32;;;;;;;10.20;2.20;;;2.20;99.90;;;;;;5031407;28;37707;-75
2024/01/16 10:20:58;;;;;;;9.03;2.10;;;2.30;99.90;;;;;;5050665;28;38429;-75
2024/01/16 10:23:25;;;;;;;15.63;2.90;;;2.30;99.90;;;;;;5032787;28;37160;-76
2024/01/16 10:26:12;;;;;;;6.67;1.77;;;2.40;99.90;;;;;;5029538;28;36156;-76
2024/01/16 10:28:40;;;;;;;8.57;2.50;;;2.40;99.90;;;;;;5035872;28;46662;-76
2024/01/16 10:31:11;;;;;;;10.67;1.80;;;2.50;99.90;;;;;;5033210;28;37680;-79
2024/01/16 10:33:39;;;;;;;12.40;2.57;;;2.50;99.90;;;;;;5037444;28;38993;-76
2024/01/16 10:36:16;;;;;;;7.67;2.17;;;2.60;99.20;;;;;;5038093;28;38120;-77
2024/01/16 10:38:44;;;;;;;8.20;1.93;;;2.60;99.70;;;;;;5032135;28;38718;-80
2024/01/16 10:41:13;;;;;;;7.03;1.87;;;2.50;97.00;;;;;;5031373;28;37254;-77
2024/01/16 10:43:40;;;;;;;3.77;1.70;;;2.60;96.90;;;;;;5031903;28;37079;-76
2024/01/16 10:46:10;;;;;;;5.30;1.87;;;2.60;96.80;;;;;;5045710;28;37167;-75
2024/01/16 10:48:36;;;;;;;6.73;1.83;;;2.60;92.30;;;;;;5040471;28;39214;-76
2024/01/16 10:51:05;;;;;;;4.60;1.37;;;2.70;93.80;;;;;;5046434;28;37626;-76
2024/01/16 10:53:33;;;;;;;4.53;1.20;;;2.70;77.40;;;;;;5040825;28;37466;-76
2024/01/16 10:56:06;;;;;;;5.73;1.30;;;2.70;39.90;;;;;;5033103;28;37366;-76
2024/01/16 10:58:32;;;;;;;;;;;2.70;19.70;;;;;;5029699;28;47524;-76
2024/01/16 11:01:05;;;;;;;4.80;0.93;;;2.70;9.60;;;;;;5030807;28;40599;-76
2024/01/16 11:03:49;;;;;;;3.60;0.80;;;2.70;1.00;;;;;;5024124;28;47012;-76
2024/01/16 11:06:16;;;;;;;5.00;0.80;;;2.70;1.00;;;;;;5025495;28;36059;-76
2024/01/16 11:08:45;;;;;;;4.97;0.93;;;2.80;1.00;;;;;;5032978;28;37631;-77
2024/01/16 11:11:13;;;;;;;5.33;1.30;;;2.80;1.00;;;;;;5043285;28;38008;-76
2024/01/16 11:13:41;;;;;;;5.53;0.93;;;2.90;1.00;;;;;;5039913;28;37239;-75
2024/01/16 11:16:10;;;;;;;3.17;0.80;;;2.90;1.00;;;;;;5021273;28;36462;-81
2024/01/16 11:18:36;;;;;;;7.67;0.70;;;2.80;1.00;;;;;;5026386;28;39033;-76
2024/01/16 11:21:08;;;;;;;3.70;0.77;;;2.90;1.00;;;;;;5026745;28;38248;-75
2024/01/16 11:23:36;;;;;;;4.25;0.82;;;2.90;1.00;;;;;;5028116;28;47264;-75
2024/01/16 11:26:24;;;;;;;3.33;0.77;;;3.00;1.00;;;;;;5036432;28;36214;-76
2024/01/16 11:28:50;;;;;;;6.03;1.93;;;3.00;1.00;;;;;;5027318;28;37998;-77
2024/01/16 11:31:37;;;;;;;2.37;0.80;;;3.10;1.00;;;;;;5024439;28;37857;-75
2024/01/16 11:34:03;;;;;;;3.87;1.53;;;3.20;1.00;;;;;;5027526;28;38109;-77
2024/01/16 11:36:53;;;;;;;9.13;0.97;;;3.20;1.00;;;;;;5028811;28;37666;-76
2024/01/16 11:39:21;;;;;;;4.97;0.90;;;3.30;1.00;;;;;;5025228;28;37872;-78
2024/01/16 11:41:52;;;;;;;3.73;0.80;;;3.40;1.00;;;;;;5029456;28;38473;-77
2024/01/16 11:44:46;;;;;;;4.37;0.80;;;3.50;1.00;;;;;;5025574;28;38581;-77
2024/01/16 11:47:23;;;;;;;4.40;1.23;;;3.50;1.00;;;;;;5022363;28;37648;-79
2024/01/16 11:50:11;;;;;;;4.23;0.90;;;3.50;1.00;;;;;;5035066;28;37739;-76
2024/01/16 11:52:42;;;;;;;5.10;0.80;;;3.50;1.00;;;;;;5030081;28;46971;-80
2024/01/16 11:55:28;;;;;;;4.53;0.83;;;3.50;1.00;;;;;;5034965;28;38119;-79
2024/01/16 11:58:13;;;;;;;7.77;1.10;;;3.60;1.00;;;;;;5047298;28;37040;-77
2024/01/16 12:00:44;;;;;;;4.60;0.83;;;3.60;1.00;;;;;;5040134;28;47540;-78
2024/01/16 12:03:13;;;;;;;1.67;0.50;;;3.50;1.00;;;;;;5030065;28;36191;-77
2024/01/16 12:05:39;;;;;;;2.37;0.67;;;3.40;1.00;;;;;;5040929;28;37499;-77
2024/01/16 12:08:06;;;;;;;7.70;0.90;;;3.30;1.00;;;;;;5022261;28;35866;-76
2024/01/16 12:10:32;;;;;;;5.40;0.87;;;3.30;1.00;;;;;;5032445;28;38723;-79
2024/01/16 12:12:59;;;;;;;3.20;0.60;;;3.20;1.00;;;;;;5035094;28;39346;-78
2024/01/16 12:15:26;;;;;;;2.73;0.50;;;3.20;1.00;;;;;;5029373;28;37226;-77
2024/01/16 12:17:57;;;;;;;5.57;1.23;;;3.20;1.00;;;;;;5030709;28;35672;-76
2024/01/16 12:20:26;;;;;;;4.27;0.77;;;3.30;1.00;;;;;;5036425;28;40432;-79
2024/01/16 12:23:03;;;;;;;4.57;0.90;;;3.20;1.00;;;;;;5025443;28;38270;-77
2024/01/16 12:25:31;;;;;;;6.17;0.87;;;3.20;1.00;;;;;;5039886;28;48199;-76
2024/01/16 12:27:59;;;;;;;1.63;0.43;;;3.20;1.00;;;;;;5025336;28;36649;-76
2024/01/16 12:30:28;;;;;;;3.20;0.90;;;3.20;1.00;;;;;;5027556;28;37657;-78
2024/01/16 12:33:13;;;;;;;3.40;0.70;;;3.40;1.00;;;;;;5036489;28;38491;-77
2024/01/16 12:35:45;;;;;;;1.87;0.50;;;3.60;1.00;;;;;;5027711;28;47299;-80
2024/01/16 12:38:13;;;;;;;3.95;0.80;;;3.60;1.00;;;;;;5030860;28;35940;-78
2024/01/16 12:40:41;;;;;;;4.67;0.50;;;3.60;1.00;;;;;;5043387;28;40080;-78
2024/01/16 12:43:11;;;;;;;3.30;0.67;;;3.70;1.00;;;;;;5029617;28;38222;-78
2024/01/16 12:45:38;;;;;;;5.13;0.70;;;3.80;1.00;;;;;;5025615;28;38660;-81
2024/01/16 12:48:04;;;;;;;3.60;0.60;;;3.90;1.00;;;;;;5022744;28;36029;-79
2024/01/16 12:50:32;;;;;;;3.30;0.70;;;3.90;1.00;;;;;;5029414;28;38343;-80
2024/01/16 12:53:02;;;;;;;5.10;1.23;;;4.00;1.00;;;;;;5041372;28;39223;-79
2024/01/16 12:55:29;;;;;;;5.87;0.70;;;3.90;1.00;;;;;;5044246;28;47308;-79
2024/01/16 12:58:20;;;;;;;2.50;0.60;;;3.90;1.00;;;;;;5028301;28;37065;-78